sensor_id;sensor_type;location;lat;lon;timestamp;P1;durP1;ratioP1;P2;durP2;ratioP2
2486;SDS011;1254;49.144;8.212;2024-02-21T00:01:42;9.35;;;4.75;;
2486;SDS011;1254;49.144;8.212;2024-02-21T00:04:11;10.68;;;4.85;;
2486;SDS011;1254;49.144;8.212;2024-02-21T00:06:39;18.85;;;6.40;;
2486;SDS011;1254;49.144;8.212;2024-02-21T00:09:07;15.40;;;5.85;;
2486;SDS011;1254;49.144;8.212;2024-02-21T00:11:36;7.45;;;5.05;;
2486;SDS011;1254;49.144;8.212;2024-02-21T00:14:04;11.27;;;5.03;;
2486;SDS011;1254;49.144;8.212;2024-02-21T00:16:34;10.68;;;4.90;;
2486;SDS011;1254;49.144;8.212;2024-02-21T00:19:03;14.55;;;5.63;;
2486;SDS011;1254;49.144;8.212;2024-02-21T00:21:31;15.82;;;6.70;;
2486;SDS011;1254;49.144;8.212;2024-02-21T00:23:59;14.50;;;6.10;;
2486;SDS011;1254;49.144;8.212;2024-02-21T00:26:27;14.98;;;6.18;;
2486;SDS011;1254;49.144;8.212;2024-02-21T00:28:55;14.32;;;4.88;;
2486;SDS011;1254;49.144;8.212;2024-02-21T00:31:24;12.70;;;6.15;;
2486;SDS011;1254;49.144;8.212;2024-02-21T00:33:53;20.00;;;7.20;;
2486;SDS011;1254;49.144;8.212;2024-02-21T00:36:22;19.40;;;6.00;;
2486;SDS011;1254;49.144;8.212;2024-02-21T00:38:50;18.25;;;6.20;;
2486;SDS011;1254;49.144;8.212;2024-02-21T00:41:18;13.90;;;6.82;;
2486;SDS011;1254;49.144;8.212;2024-02-21T00:43:46;11.00;;;6.07;;
2486;SDS011;1254;49.144;8.212;2024-02-21T00:46:16;16.88;;;6.40;;
2486;SDS011;1254;49.144;8.212;2024-02-21T00:48:44;16.67;;;6.60;;
2486;SDS011;1254;49.144;8.212;2024-02-21T00:51:14;16.92;;;6.90;;
2486;SDS011;1254;49.144;8.212;2024-02-21T00:53:42;16.55;;;6.93;;
2486;SDS011;1254;49.144;8.212;2024-02-21T00:56:10;16.70;;;7.25;;
2486;SDS011;1254;49.144;8.212;2024-02-21T00:58:39;18.73;;;6.75;;
2486;SDS011;1254;49.144;8.212;2024-02-21T01:01:07;18.40;;;6.95;;
2486;SDS011;1254;49.144;8.212;2024-02-21T01:03:35;15.02;;;7.88;;
2486;SDS011;1254;49.144;8.212;2024-02-21T01:06:06;19.13;;;8.00;;
2486;SDS011;1254;49.144;8.212;2024-02-21T01:08:35;17.90;;;7.03;;
2486;SDS011;1254;49.144;8.212;2024-02-21T01:11:05;20.00;;;8.23;;
2486;SDS011;1254;49.144;8.212;2024-02-21T01:13:33;14.20;;;7.15;;
2486;SDS011;1254;49.144;8.212;2024-02-21T01:16:01;11.57;;;7.20;;
2486;SDS011;1254;49.144;8.212;2024-02-21T01:18:30;15.65;;;7.65;;
2486;SDS011;1254;49.144;8.212;2024-02-21T01:20:58;15.38;;;7.80;;
2486;SDS011;1254;49.144;8.212;2024-02-21T01:23:27;25.02;;;8.05;;
2486;SDS011;1254;49.144;8.212;2024-02-21T01:25:57;17.23;;;7.68;;
2486;SDS011;1254;49.144;8.212;2024-02-21T01:28:25;15.80;;;7.90;;
2486;SDS011;1254;49.144;8.212;2024-02-21T01:30:53;11.38;;;6.07;;
2486;SDS011;1254;49.144;8.212;2024-02-21T01:33:21;12.57;;;7.57;;
2486;SDS011;1254;49.144;8.212;2024-02-21T01:35:50;14.48;;;7.30;;
2486;SDS011;1254;49.144;8.212;2024-02-21T01:38:18;15.70;;;6.93;;
2486;SDS011;1254;49.144;8.212;2024-02-21T01:40:47;12.98;;;6.72;;
2486;SDS011;1254;49.144;8.212;2024-02-21T01:43:17;13.80;;;6.72;;
2486;SDS011;1254;49.144;8.212;2024-02-21T01:45:46;14.20;;;7.07;;
2486;SDS011;1254;49.144;8.212;2024-02-21T01:48:17;13.23;;;6.72;;
2486;SDS011;1254;49.144;8.212;2024-02-21T01:50:45;8.68;;;5.45;;
2486;SDS011;1254;49.144;8.212;2024-02-21T01:53:14;16.83;;;7.22;;
2486;SDS011;1254;49.144;8.212;2024-02-21T01:55:44;16.67;;;7.63;;
2486;SDS011;1254;49.144;8.212;2024-02-21T01:58:13;15.07;;;6.95;;
2486;SDS011;1254;49.144;8.212;2024-02-21T02:00:43;16.05;;;7.13;;
2486;SDS011;1254;49.144;8.212;2024-02-21T02:03:12;14.50;;;6.30;;
2486;SDS011;1254;49.144;8.212;2024-02-21T02:05:43;13.55;;;6.50;;
2486;SDS011;1254;49.144;8.212;2024-02-21T02:08:12;24.52;;;8.57;;
2486;SDS011;1254;49.144;8.212;2024-02-21T02:10:40;18.92;;;7.10;;
2486;SDS011;1254;49.144;8.212;2024-02-21T02:13:09;10.63;;;7.03;;
2486;SDS011;1254;49.144;8.212;2024-02-21T02:15:38;22.77;;;8.50;;
2486;SDS011;1254;49.144;8.212;2024-02-21T02:18:07;17.13;;;9.13;;
2486;SDS011;1254;49.144;8.212;2024-02-21T02:20:36;14.50;;;7.05;;
2486;SDS011;1254;49.144;8.212;2024-02-21T02:23:06;13.98;;;6.60;;
2486;SDS011;1254;49.144;8.212;2024-02-21T02:25:36;9.95;;;7.55;;
2486;SDS011;1254;49.144;8.212;2024-02-21T02:28:05;12.98;;;7.65;;
2486;SDS011;1254;49.144;8.212;2024-02-21T02:30:34;16.25;;;8.18;;
2486;SDS011;1254;49.144;8.212;2024-02-21T02:33:02;18.65;;;8.35;;
2486;SDS011;1254;49.144;8.212;2024-02-21T02:35:31;16.63;;;8.20;;
2486;SDS011;1254;49.144;8.212;2024-02-21T02:38:01;13.07;;;8.40;;
2486;SDS011;1254;49.144;8.212;2024-02-21T02:40:29;19.23;;;8.40;;
2486;SDS011;1254;49.144;8.212;2024-02-21T02:42:59;11.80;;;7.53;;
2486;SDS011;1254;49.144;8.212;2024-02-21T02:45:28;11.70;;;7.93;;
2486;SDS011;1254;49.144;8.212;2024-02-21T02:47:56;16.10;;;7.57;;
2486;SDS011;1254;49.144;8.212;2024-02-21T02:50:24;17.30;;;8.93;;
2486;SDS011;1254;49.144;8.212;2024-02-21T02:52:53;15.55;;;7.55;;
2486;SDS011;1254;49.144;8.212;2024-02-21T02:55:21;15.55;;;7.15;;
2486;SDS011;1254;49.144;8.212;2024-02-21T02:57:50;10.50;;;6.22;;
2486;SDS011;1254;49.144;8.212;2024-02-21T03:00:19;19.98;;;8.27;;
2486;SDS011;1254;49.144;8.212;2024-02-21T03:02:48;15.73;;;6.75;;
2486;SDS011;1254;49.144;8.212;2024-02-21T03:05:17;14.38;;;7.13;;
2486;SDS011;1254;49.144;8.212;2024-02-21T03:07:45;12.20;;;6.32;;
2486;SDS011;1254;49.144;8.212;2024-02-21T03:10:14;12.48;;;7.07;;
2486;SDS011;1254;49.144;8.212;2024-02-21T03:12:43;13.52;;;7.80;;
2486;SDS011;1254;49.144;8.212;2024-02-21T03:15:11;12.05;;;7.30;;
2486;SDS011;1254;49.144;8.212;2024-02-21T03:17:41;13.25;;;7.97;;
2486;SDS011;1254;49.144;8.212;2024-02-21T03:20:10;14.40;;;8.50;;
2486;SDS011;1254;49.144;8.212;2024-02-21T03:22:38;11.27;;;6.88;;
2486;SDS011;1254;49.144;8.212;2024-02-21T03:25:07;10.57;;;7.47;;
2486;SDS011;1254;49.144;8.212;2024-02-21T03:27:36;15.20;;;7.80;;
2486;SDS011;1254;49.144;8.212;2024-02-21T03:30:04;13.90;;;8.10;;
2486;SDS011;1254;49.144;8.212;2024-02-21T03:32:33;17.67;;;7.72;;
2486;SDS011;1254;49.144;8.212;2024-02-21T03:35:03;12.32;;;7.43;;
2486;SDS011;1254;49.144;8.212;2024-02-21T03:37:32;16.88;;;7.40;;
2486;SDS011;1254;49.144;8.212;2024-02-21T03:40:00;16.45;;;8.23;;
2486;SDS011;1254;49.144;8.212;2024-02-21T03:42:29;14.80;;;8.18;;
2486;SDS011;1254;49.144;8.212;2024-02-21T03:44:57;14.70;;;7.97;;
2486;SDS011;1254;49.144;8.212;2024-02-21T03:47:25;11.98;;;7.63;;
2486;SDS011;1254;49.144;8.212;2024-02-21T03:49:55;14.25;;;7.63;;
2486;SDS011;1254;49.144;8.212;2024-02-21T03:52:25;17.88;;;8.50;;
2486;SDS011;1254;49.144;8.212;2024-02-21T03:54:54;17.38;;;8.25;;
2486;SDS011;1254;49.144;8.212;2024-02-21T03:57:22;21.52;;;8.40;;
2486;SDS011;1254;49.144;8.212;2024-02-21T03:59:50;18.83;;;7.97;;
2486;SDS011;1254;49.144;8.212;2024-02-21T04:02:18;16.23;;;7.68;;
2486;SDS011;1254;49.144;8.212;2024-02-21T04:04:47;15.05;;;8.80;;
2486;SDS011;1254;49.144;8.212;2024-02-21T04:07:15;16.33;;;8.65;;
2486;SDS011;1254;49.144;8.212;2024-02-21T04:09:45;16.48;;;8.27;;
2486;SDS011;1254;49.144;8.212;2024-02-21T04:12:13;14.27;;;7.90;;
2486;SDS011;1254;49.144;8.212;2024-02-21T04:14:42;19.33;;;8.77;;
2486;SDS011;1254;49.144;8.212;2024-02-21T04:17:10;18.67;;;8.75;;
2486;SDS011;1254;49.144;8.212;2024-02-21T04:19:38;18.70;;;8.35;;
2486;SDS011;1254;49.144;8.212;2024-02-21T04:22:07;18.65;;;8.93;;
2486;SDS011;1254;49.144;8.212;2024-02-21T04:24:35;20.27;;;7.82;;
2486;SDS011;1254;49.144;8.212;2024-02-21T04:27:05;15.35;;;8.55;;
2486;SDS011;1254;49.144;8.212;2024-02-21T04:29:33;18.63;;;9.43;;
2486;SDS011;1254;49.144;8.212;2024-02-21T04:32:01;17.88;;;8.98;;
2486;SDS011;1254;49.144;8.212;2024-02-21T04:34:31;17.25;;;8.10;;
2486;SDS011;1254;49.144;8.212;2024-02-21T04:36:59;22.85;;;9.27;;
2486;SDS011;1254;49.144;8.212;2024-02-21T04:39:27;15.70;;;8.93;;
2486;SDS011;1254;49.144;8.212;2024-02-21T04:41:55;19.67;;;8.40;;
2486;SDS011;1254;49.144;8.212;2024-02-21T04:44:25;24.98;;;7.90;;
2486;SDS011;1254;49.144;8.212;2024-02-21T04:46:53;11.93;;;7.80;;
2486;SDS011;1254;49.144;8.212;2024-02-21T04:49:21;21.02;;;8.23;;
2486;SDS011;1254;49.144;8.212;2024-02-21T04:51:50;25.92;;;8.85;;
2486;SDS011;1254;49.144;8.212;2024-02-21T04:54:19;18.10;;;7.93;;
2486;SDS011;1254;49.144;8.212;2024-02-21T04:56:47;13.82;;;7.45;;
2486;SDS011;1254;49.144;8.212;2024-02-21T04:59:16;9.85;;;8.25;;
2486;SDS011;1254;49.144;8.212;2024-02-21T05:01:45;13.55;;;8.95;;
2486;SDS011;1254;49.144;8.212;2024-02-21T05:04:14;11.80;;;8.30;;
2486;SDS011;1254;49.144;8.212;2024-02-21T05:06:42;13.90;;;8.73;;
2486;SDS011;1254;49.144;8.212;2024-02-21T05:09:11;14.35;;;8.15;;
2486;SDS011;1254;49.144;8.212;2024-02-21T05:11:40;16.30;;;8.70;;
2486;SDS011;1254;49.144;8.212;2024-02-21T05:14:12;14.57;;;7.82;;
2486;SDS011;1254;49.144;8.212;2024-02-21T05:16:40;14.73;;;7.22;;
2486;SDS011;1254;49.144;8.212;2024-02-21T05:19:10;21.15;;;12.20;;
2486;SDS011;1254;49.144;8.212;2024-02-21T05:21:41;16.40;;;8.40;;
2486;SDS011;1254;49.144;8.212;2024-02-21T05:24:09;14.45;;;7.07;;
2486;SDS011;1254;49.144;8.212;2024-02-21T05:26:37;11.95;;;7.80;;
2486;SDS011;1254;49.144;8.212;2024-02-21T05:29:06;18.45;;;9.40;;
2486;SDS011;1254;49.144;8.212;2024-02-21T05:31:43;13.18;;;8.68;;
2486;SDS011;1254;49.144;8.212;2024-02-21T05:34:23;17.95;;;8.55;;
2486;SDS011;1254;49.144;8.212;2024-02-21T05:36:52;13.65;;;8.30;;
2486;SDS011;1254;49.144;8.212;2024-02-21T05:39:21;10.18;;;7.80;;
2486;SDS011;1254;49.144;8.212;2024-02-21T05:41:49;20.23;;;8.68;;
2486;SDS011;1254;49.144;8.212;2024-02-21T05:44:21;15.07;;;8.32;;
2486;SDS011;1254;49.144;8.212;2024-02-21T05:46:50;25.25;;;9.32;;
2486;SDS011;1254;49.144;8.212;2024-02-21T05:49:18;18.92;;;8.68;;
2486;SDS011;1254;49.144;8.212;2024-02-21T05:51:48;18.08;;;9.82;;
2486;SDS011;1254;49.144;8.212;2024-02-21T05:54:16;22.20;;;8.63;;
2486;SDS011;1254;49.144;8.212;2024-02-21T05:56:44;22.55;;;8.77;;
2486;SDS011;1254;49.144;8.212;2024-02-21T05:59:13;12.02;;;8.40;;
2486;SDS011;1254;49.144;8.212;2024-02-21T06:01:41;16.42;;;8.23;;
2486;SDS011;1254;49.144;8.212;2024-02-21T06:04:09;17.15;;;9.75;;
2486;SDS011;1254;49.144;8.212;2024-02-21T06:06:37;17.30;;;9.35;;
2486;SDS011;1254;49.144;8.212;2024-02-21T06:09:07;16.77;;;9.40;;
2486;SDS011;1254;49.144;8.212;2024-02-21T06:11:35;18.60;;;8.90;;
2486;SDS011;1254;49.144;8.212;2024-02-21T06:14:04;15.25;;;9.52;;
2486;SDS011;1254;49.144;8.212;2024-02-21T06:16:32;18.60;;;8.88;;
2486;SDS011;1254;49.144;8.212;2024-02-21T06:19:00;22.65;;;8.45;;
2486;SDS011;1254;49.144;8.212;2024-02-21T06:21:29;24.02;;;9.82;;
2486;SDS011;1254;49.144;8.212;2024-02-21T06:23:57;17.67;;;8.57;;
2486;SDS011;1254;49.144;8.212;2024-02-21T06:26:27;17.63;;;9.00;;
2486;SDS011;1254;49.144;8.212;2024-02-21T06:28:55;16.95;;;10.55;;
2486;SDS011;1254;49.144;8.212;2024-02-21T06:31:25;21.42;;;8.30;;
2486;SDS011;1254;49.144;8.212;2024-02-21T06:33:53;13.35;;;7.40;;
2486;SDS011;1254;49.144;8.212;2024-02-21T06:36:22;19.17;;;9.23;;
2486;SDS011;1254;49.144;8.212;2024-02-21T06:38:50;25.25;;;17.05;;
2486;SDS011;1254;49.144;8.212;2024-02-21T06:41:18;20.67;;;9.10;;
2486;SDS011;1254;49.144;8.212;2024-02-21T06:43:48;15.05;;;9.30;;
2486;SDS011;1254;49.144;8.212;2024-02-21T06:46:23;15.18;;;8.70;;
2486;SDS011;1254;49.144;8.212;2024-02-21T06:48:52;13.07;;;8.55;;
2486;SDS011;1254;49.144;8.212;2024-02-21T06:51:22;14.30;;;11.13;;
2486;SDS011;1254;49.144;8.212;2024-02-21T06:53:51;16.83;;;9.70;;
2486;SDS011;1254;49.144;8.212;2024-02-21T06:56:19;18.92;;;9.30;;
2486;SDS011;1254;49.144;8.212;2024-02-21T06:58:49;16.23;;;9.45;;
2486;SDS011;1254;49.144;8.212;2024-02-21T07:01:17;18.10;;;8.60;;
2486;SDS011;1254;49.144;8.212;2024-02-21T07:03:45;14.38;;;7.82;;
2486;SDS011;1254;49.144;8.212;2024-02-21T07:06:13;10.70;;;7.80;;
2486;SDS011;1254;49.144;8.212;2024-02-21T07:08:42;18.63;;;8.35;;
2486;SDS011;1254;49.144;8.212;2024-02-21T07:11:10;17.08;;;9.90;;
2486;SDS011;1254;49.144;8.212;2024-02-21T07:13:38;17.08;;;8.07;;
2486;SDS011;1254;49.144;8.212;2024-02-21T07:16:08;13.63;;;8.23;;
2486;SDS011;1254;49.144;8.212;2024-02-21T07:18:39;13.55;;;8.43;;
2486;SDS011;1254;49.144;8.212;2024-02-21T07:21:07;17.08;;;7.70;;
2486;SDS011;1254;49.144;8.212;2024-02-21T07:23:35;19.77;;;9.85;;
2486;SDS011;1254;49.144;8.212;2024-02-21T07:26:04;15.30;;;7.57;;
2486;SDS011;1254;49.144;8.212;2024-02-21T07:28:32;17.42;;;8.52;;
2486;SDS011;1254;49.144;8.212;2024-02-21T07:31:00;15.23;;;9.10;;
2486;SDS011;1254;49.144;8.212;2024-02-21T07:33:30;14.32;;;8.18;;
2486;SDS011;1254;49.144;8.212;2024-02-21T07:35:58;12.95;;;7.65;;
2486;SDS011;1254;49.144;8.212;2024-02-21T07:38:26;20.60;;;8.27;;
2486;SDS011;1254;49.144;8.212;2024-02-21T07:40:55;16.67;;;7.90;;
2486;SDS011;1254;49.144;8.212;2024-02-21T07:43:23;22.05;;;8.18;;
2486;SDS011;1254;49.144;8.212;2024-02-21T07:45:52;23.35;;;8.45;;
2486;SDS011;1254;49.144;8.212;2024-02-21T07:48:21;14.10;;;7.63;;
2486;SDS011;1254;49.144;8.212;2024-02-21T07:50:52;15.20;;;8.07;;
2486;SDS011;1254;49.144;8.212;2024-02-21T07:53:20;18.80;;;8.40;;
2486;SDS011;1254;49.144;8.212;2024-02-21T07:55:48;22.55;;;7.90;;
2486;SDS011;1254;49.144;8.212;2024-02-21T07:58:16;24.05;;;8.40;;
2486;SDS011;1254;49.144;8.212;2024-02-21T08:00:45;15.38;;;8.25;;
2486;SDS011;1254;49.144;8.212;2024-02-21T08:03:13;13.48;;;7.95;;
2486;SDS011;1254;49.144;8.212;2024-02-21T08:05:43;14.68;;;7.80;;
2486;SDS011;1254;49.144;8.212;2024-02-21T08:08:13;14.60;;;8.30;;
2486;SDS011;1254;49.144;8.212;2024-02-21T08:10:44;17.52;;;9.18;;
2486;SDS011;1254;49.144;8.212;2024-02-21T08:13:12;14.50;;;8.85;;
2486;SDS011;1254;49.144;8.212;2024-02-21T08:15:41;12.80;;;7.40;;
2486;SDS011;1254;49.144;8.212;2024-02-21T08:18:09;12.10;;;7.70;;
2486;SDS011;1254;49.144;8.212;2024-02-21T08:20:37;27.13;;;8.32;;
2486;SDS011;1254;49.144;8.212;2024-02-21T08:23:05;11.35;;;7.57;;
2486;SDS011;1254;49.144;8.212;2024-02-21T08:25:35;14.77;;;8.15;;
2486;SDS011;1254;49.144;8.212;2024-02-21T08:28:04;14.82;;;8.48;;
2486;SDS011;1254;49.144;8.212;2024-02-21T08:30:33;13.45;;;8.05;;
2486;SDS011;1254;49.144;8.212;2024-02-21T08:33:02;20.48;;;8.05;;
2486;SDS011;1254;49.144;8.212;2024-02-21T08:35:30;15.85;;;8.15;;
2486;SDS011;1254;49.144;8.212;2024-02-21T08:37:59;15.35;;;7.82;;
2486;SDS011;1254;49.144;8.212;2024-02-21T08:40:27;14.85;;;7.30;;
2486;SDS011;1254;49.144;8.212;2024-02-21T08:42:57;19.35;;;8.77;;
2486;SDS011;1254;49.144;8.212;2024-02-21T08:45:25;19.83;;;7.82;;
2486;SDS011;1254;49.144;8.212;2024-02-21T08:47:56;13.55;;;7.80;;
2486;SDS011;1254;49.144;8.212;2024-02-21T08:50:24;9.77;;;7.60;;
2486;SDS011;1254;49.144;8.212;2024-02-21T08:52:53;12.07;;;6.90;;
2486;SDS011;1254;49.144;8.212;2024-02-21T08:55:21;12.65;;;8.68;;
2486;SDS011;1254;49.144;8.212;2024-02-21T08:57:50;13.75;;;9.15;;
2486;SDS011;1254;49.144;8.212;2024-02-21T09:00:20;16.33;;;7.75;;
2486;SDS011;1254;49.144;8.212;2024-02-21T09:02:53;16.90;;;7.85;;
2486;SDS011;1254;49.144;8.212;2024-02-21T09:05:23;12.98;;;7.25;;
2486;SDS011;1254;49.144;8.212;2024-02-21T09:07:52;16.33;;;8.20;;
2486;SDS011;1254;49.144;8.212;2024-02-21T09:10:20;15.43;;;7.25;;
2486;SDS011;1254;49.144;8.212;2024-02-21T09:13:03;10.85;;;6.85;;
2486;SDS011;1254;49.144;8.212;2024-02-21T09:15:36;10.07;;;6.32;;
2486;SDS011;1254;49.144;8.212;2024-02-21T09:18:06;21.42;;;7.32;;
2486;SDS011;1254;49.144;8.212;2024-02-21T09:20:34;13.20;;;7.85;;
2486;SDS011;1254;49.144;8.212;2024-02-21T09:23:03;15.27;;;7.53;;
2486;SDS011;1254;49.144;8.212;2024-02-21T09:25:31;9.82;;;6.38;;
2486;SDS011;1254;49.144;8.212;2024-02-21T09:28:00;11.15;;;7.15;;
2486;SDS011;1254;49.144;8.212;2024-02-21T09:30:29;15.77;;;6.53;;
2486;SDS011;1254;49.144;8.212;2024-02-21T09:32:58;15.32;;;7.53;;
2486;SDS011;1254;49.144;8.212;2024-02-21T09:35:27;14.07;;;6.85;;
2486;SDS011;1254;49.144;8.212;2024-02-21T09:37:56;12.20;;;6.85;;
2486;SDS011;1254;49.144;8.212;2024-02-21T09:40:24;12.07;;;6.20;;
2486;SDS011;1254;49.144;8.212;2024-02-21T09:42:54;14.20;;;6.97;;
2486;SDS011;1254;49.144;8.212;2024-02-21T09:45:29;10.60;;;6.70;;
2486;SDS011;1254;49.144;8.212;2024-02-21T09:48:04;11.60;;;6.63;;
2486;SDS011;1254;49.144;8.212;2024-02-21T09:50:37;11.45;;;7.03;;
2486;SDS011;1254;49.144;8.212;2024-02-21T09:53:07;11.20;;;7.22;;
2486;SDS011;1254;49.144;8.212;2024-02-21T09:55:35;8.20;;;6.63;;
2486;SDS011;1254;49.144;8.212;2024-02-21T09:58:08;15.30;;;8.52;;
2486;SDS011;1254;49.144;8.212;2024-02-21T10:00:39;11.77;;;6.78;;
2486;SDS011;1254;49.144;8.212;2024-02-21T10:03:11;18.42;;;6.80;;
2486;SDS011;1254;49.144;8.212;2024-02-21T10:05:45;13.45;;;5.90;;
2486;SDS011;1254;49.144;8.212;2024-02-21T10:08:16;14.52;;;7.03;;
2486;SDS011;1254;49.144;8.212;2024-02-21T10:10:46;12.13;;;6.18;;
2486;SDS011;1254;49.144;8.212;2024-02-21T10:13:23;8.52;;;5.82;;
2486;SDS011;1254;49.144;8.212;2024-02-21T10:16:00;11.85;;;6.25;;
2486;SDS011;1254;49.144;8.212;2024-02-21T10:18:30;9.52;;;6.53;;
2486;SDS011;1254;49.144;8.212;2024-02-21T10:21:01;11.85;;;5.72;;
2486;SDS011;1254;49.144;8.212;2024-02-21T10:23:43;8.15;;;5.57;;
2486;SDS011;1254;49.144;8.212;2024-02-21T10:26:12;14.00;;;5.40;;
2486;SDS011;1254;49.144;8.212;2024-02-21T10:28:41;9.23;;;5.65;;
2486;SDS011;1254;49.144;8.212;2024-02-21T10:31:11;6.38;;;4.93;;
2486;SDS011;1254;49.144;8.212;2024-02-21T10:33:40;14.15;;;5.47;;
2486;SDS011;1254;49.144;8.212;2024-02-21T10:36:09;6.28;;;4.57;;
2486;SDS011;1254;49.144;8.212;2024-02-21T10:38:37;6.97;;;5.30;;
2486;SDS011;1254;49.144;8.212;2024-02-21T10:41:06;15.27;;;5.25;;
2486;SDS011;1254;49.144;8.212;2024-02-21T10:43:37;9.55;;;5.75;;
2486;SDS011;1254;49.144;8.212;2024-02-21T10:46:07;10.02;;;5.88;;
2486;SDS011;1254;49.144;8.212;2024-02-21T10:48:41;7.57;;;5.10;;
2486;SDS011;1254;49.144;8.212;2024-02-21T10:51:16;9.77;;;5.10;;
2486;SDS011;1254;49.144;8.212;2024-02-21T10:53:47;13.07;;;5.90;;
2486;SDS011;1254;49.144;8.212;2024-02-21T10:56:21;12.20;;;6.28;;
2486;SDS011;1254;49.144;8.212;2024-02-21T10:58:53;11.52;;;5.90;;
2486;SDS011;1254;49.144;8.212;2024-02-21T11:01:22;13.32;;;6.40;;
2486;SDS011;1254;49.144;8.212;2024-02-21T11:03:53;7.53;;;6.43;;
2486;SDS011;1254;49.144;8.212;2024-02-21T11:06:23;11.43;;;7.00;;
2486;SDS011;1254;49.144;8.212;2024-02-21T11:09:00;9.18;;;6.40;;
2486;SDS011;1254;49.144;8.212;2024-02-21T11:11:32;10.45;;;7.25;;
2486;SDS011;1254;49.144;8.212;2024-02-21T11:14:04;14.60;;;6.50;;
2486;SDS011;1254;49.144;8.212;2024-02-21T11:16:36;9.23;;;6.43;;
2486;SDS011;1254;49.144;8.212;2024-02-21T11:19:06;15.15;;;6.25;;
2486;SDS011;1254;49.144;8.212;2024-02-21T11:21:37;7.55;;;6.75;;
2486;SDS011;1254;49.144;8.212;2024-02-21T11:24:05;9.55;;;5.85;;
2486;SDS011;1254;49.144;8.212;2024-02-21T11:26:36;11.85;;;6.70;;
2486;SDS011;1254;49.144;8.212;2024-02-21T11:29:05;12.90;;;7.47;;
2486;SDS011;1254;49.144;8.212;2024-02-21T11:31:40;12.15;;;6.63;;
2486;SDS011;1254;49.144;8.212;2024-02-21T11:34:09;11.27;;;6.00;;
2486;SDS011;1254;49.144;8.212;2024-02-21T11:36:47;12.40;;;5.90;;
2486;SDS011;1254;49.144;8.212;2024-02-21T11:39:20;11.63;;;6.60;;
2486;SDS011;1254;49.144;8.212;2024-02-21T11:42:00;9.57;;;6.53;;
2486;SDS011;1254;49.144;8.212;2024-02-21T11:44:29;10.50;;;5.90;;
2486;SDS011;1254;49.144;8.212;2024-02-21T11:46:57;11.30;;;7.03;;
2486;SDS011;1254;49.144;8.212;2024-02-21T11:49:29;6.32;;;5.70;;
2486;SDS011;1254;49.144;8.212;2024-02-21T11:52:00;9.80;;;6.63;;
2486;SDS011;1254;49.144;8.212;2024-02-21T11:54:30;11.90;;;7.15;;
2486;SDS011;1254;49.144;8.212;2024-02-21T11:56:58;9.07;;;6.70;;
2486;SDS011;1254;49.144;8.212;2024-02-21T11:59:26;9.98;;;7.10;;
2486;SDS011;1254;49.144;8.212;2024-02-21T12:01:58;11.70;;;8.40;;
2486;SDS011;1254;49.144;8.212;2024-02-21T12:04:26;8.33;;;6.67;;
2486;SDS011;1254;49.144;8.212;2024-02-21T12:06:56;9.40;;;8.00;;
2486;SDS011;1254;49.144;8.212;2024-02-21T12:09:26;8.77;;;7.17;;
2486;SDS011;1254;49.144;8.212;2024-02-21T12:11:57;9.03;;;7.60;;
2486;SDS011;1254;49.144;8.212;2024-02-21T12:14:26;9.20;;;7.30;;
2486;SDS011;1254;49.144;8.212;2024-02-21T12:16:56;12.70;;;8.07;;
2486;SDS011;1254;49.144;8.212;2024-02-21T12:19:24;9.00;;;8.13;;
2486;SDS011;1254;49.144;8.212;2024-02-21T12:21:53;9.70;;;8.20;;
2486;SDS011;1254;49.144;8.212;2024-02-21T12:24:24;13.60;;;9.00;;
2486;SDS011;1254;49.144;8.212;2024-02-21T12:26:55;9.90;;;8.18;;
2486;SDS011;1254;49.144;8.212;2024-02-21T12:29:27;12.10;;;7.10;;
2486;SDS011;1254;49.144;8.212;2024-02-21T12:31:56;10.17;;;7.50;;
2486;SDS011;1254;49.144;8.212;2024-02-21T12:34:24;8.20;;;7.40;;
2486;SDS011;1254;49.144;8.212;2024-02-21T12:36:53;10.20;;;7.87;;
2486;SDS011;1254;49.144;8.212;2024-02-21T12:39:21;9.77;;;7.50;;
2486;SDS011;1254;49.144;8.212;2024-02-21T12:41:52;9.67;;;7.60;;
2486;SDS011;1254;49.144;8.212;2024-02-21T12:44:21;14.17;;;8.00;;
2486;SDS011;1254;49.144;8.212;2024-02-21T12:46:49;10.07;;;7.67;;
2486;SDS011;1254;49.144;8.212;2024-02-21T12:49:19;9.63;;;7.10;;
2486;SDS011;1254;49.144;8.212;2024-02-21T12:51:47;11.37;;;7.97;;
2486;SDS011;1254;49.144;8.212;2024-02-21T12:54:16;19.87;;;7.57;;
2486;SDS011;1254;49.144;8.212;2024-02-21T12:56:44;10.00;;;6.90;;
2486;SDS011;1254;49.144;8.212;2024-02-21T12:59:12;17.03;;;8.83;;
2486;SDS011;1254;49.144;8.212;2024-02-21T13:01:43;10.87;;;7.57;;
2486;SDS011;1254;49.144;8.212;2024-02-21T13:04:11;10.63;;;8.47;;
2486;SDS011;1254;49.144;8.212;2024-02-21T13:06:39;15.20;;;8.80;;
2486;SDS011;1254;49.144;8.212;2024-02-21T13:09:08;10.37;;;7.47;;
2486;SDS011;1254;49.144;8.212;2024-02-21T13:11:37;10.18;;;7.78;;
2486;SDS011;1254;49.144;8.212;2024-02-21T13:14:06;11.27;;;8.75;;
2486;SDS011;1254;49.144;8.212;2024-02-21T13:16:35;8.35;;;7.60;;
2486;SDS011;1254;49.144;8.212;2024-02-21T13:19:06;10.27;;;7.67;;
2486;SDS011;1254;49.144;8.212;2024-02-21T13:21:35;9.70;;;8.10;;
2486;SDS011;1254;49.144;8.212;2024-02-21T13:24:04;8.30;;;7.50;;
2486;SDS011;1254;49.144;8.212;2024-02-21T13:26:32;7.82;;;7.05;;
2486;SDS011;1254;49.144;8.212;2024-02-21T13:29:00;10.68;;;7.75;;
2486;SDS011;1254;49.144;8.212;2024-02-21T13:31:29;11.07;;;7.53;;
2486;SDS011;1254;49.144;8.212;2024-02-21T13:33:57;7.33;;;6.63;;
2486;SDS011;1254;49.144;8.212;2024-02-21T13:36:32;13.43;;;8.02;;
2486;SDS011;1254;49.144;8.212;2024-02-21T13:39:00;13.20;;;7.85;;
2486;SDS011;1254;49.144;8.212;2024-02-21T13:41:31;13.10;;;7.30;;
2486;SDS011;1254;49.144;8.212;2024-02-21T13:43:59;8.57;;;7.10;;
2486;SDS011;1254;49.144;8.212;2024-02-21T13:46:32;8.60;;;7.37;;
2486;SDS011;1254;49.144;8.212;2024-02-21T13:49:04;12.57;;;7.93;;
2486;SDS011;1254;49.144;8.212;2024-02-21T13:51:34;7.53;;;6.93;;
2486;SDS011;1254;49.144;8.212;2024-02-21T13:54:03;9.70;;;8.40;;
2486;SDS011;1254;49.144;8.212;2024-02-21T13:56:32;7.75;;;7.15;;
2486;SDS011;1254;49.144;8.212;2024-02-21T13:59:00;10.85;;;8.05;;
2486;SDS011;1254;49.144;8.212;2024-02-21T14:01:30;13.32;;;9.68;;
2486;SDS011;1254;49.144;8.212;2024-02-21T14:03:59;11.37;;;7.60;;
2486;SDS011;1254;49.144;8.212;2024-02-21T14:06:34;12.33;;;7.43;;
2486;SDS011;1254;49.144;8.212;2024-02-21T14:09:08;10.73;;;8.23;;
2486;SDS011;1254;49.144;8.212;2024-02-21T14:11:39;9.50;;;8.50;;
2486;SDS011;1254;49.144;8.212;2024-02-21T14:14:09;11.73;;;10.50;;
2486;SDS011;1254;49.144;8.212;2024-02-21T14:16:39;10.85;;;8.80;;
2486;SDS011;1254;49.144;8.212;2024-02-21T14:19:08;9.17;;;8.33;;
2486;SDS011;1254;49.144;8.212;2024-02-21T14:21:39;8.10;;;7.30;;
2486;SDS011;1254;49.144;8.212;2024-02-21T14:24:07;10.60;;;7.82;;
2486;SDS011;1254;49.144;8.212;2024-02-21T14:26:36;12.07;;;6.60;;
2486;SDS011;1254;49.144;8.212;2024-02-21T14:29:07;16.27;;;8.27;;
2486;SDS011;1254;49.144;8.212;2024-02-21T14:31:35;9.13;;;6.97;;
2486;SDS011;1254;49.144;8.212;2024-02-21T14:34:03;8.00;;;7.10;;
2486;SDS011;1254;49.144;8.212;2024-02-21T14:36:33;8.57;;;7.78;;
2486;SDS011;1254;49.144;8.212;2024-02-21T14:39:03;7.60;;;6.80;;
2486;SDS011;1254;49.144;8.212;2024-02-21T14:41:31;12.50;;;7.00;;
2486;SDS011;1254;49.144;8.212;2024-02-21T14:44:05;11.65;;;7.30;;
2486;SDS011;1254;49.144;8.212;2024-02-21T14:46:36;11.50;;;6.23;;
2486;SDS011;1254;49.144;8.212;2024-02-21T14:49:05;7.67;;;6.20;;
2486;SDS011;1254;49.144;8.212;2024-02-21T14:51:33;11.30;;;6.50;;
2486;SDS011;1254;49.144;8.212;2024-02-21T14:54:08;12.90;;;7.40;;
2486;SDS011;1254;49.144;8.212;2024-02-21T14:56:36;7.57;;;6.83;;
2486;SDS011;1254;49.144;8.212;2024-02-21T14:59:08;7.90;;;7.03;;
2486;SDS011;1254;49.144;8.212;2024-02-21T15:01:40;9.83;;;7.87;;
2486;SDS011;1254;49.144;8.212;2024-02-21T15:04:09;11.40;;;8.00;;
2486;SDS011;1254;49.144;8.212;2024-02-21T15:06:43;12.27;;;9.97;;
2486;SDS011;1254;49.144;8.212;2024-02-21T15:09:12;10.47;;;8.03;;
2486;SDS011;1254;49.144;8.212;2024-02-21T15:11:41;11.73;;;8.27;;
2486;SDS011;1254;49.144;8.212;2024-02-21T15:14:10;8.90;;;7.90;;
2486;SDS011;1254;49.144;8.212;2024-02-21T15:16:49;11.53;;;7.83;;